createdAt,value
2019-04-27T00:01:49.163Z,65.40
2019-04-27T00:06:09.898Z,65.50
2019-04-27T00:10:40.454Z,65.70
2019-04-27T00:14:59.471Z,65.70
2019-04-27T00:19:35.288Z,65.70
2019-04-27T00:23:53.197Z,65.80
2019-04-27T00:28:12.849Z,66.00
2019-04-27T00:32:33.119Z,65.90
2019-04-27T00:37:13.672Z,65.80
2019-04-27T00:41:33.905Z,65.90
2019-04-27T00:45:53.736Z,65.80
2019-04-27T00:50:13.458Z,65.70
2019-04-27T00:54:33.886Z,65.50
2019-04-27T00:59:26.701Z,65.20
2019-04-27T01:04:13.592Z,64.80
2019-04-27T01:08:32.068Z,64.60
2019-04-27T01:12:50.519Z,64.20
2019-04-27T01:17:09.327Z,63.90
2019-04-27T01:21:29.540Z,63.80
2019-04-27T01:26:07.192Z,63.60
2019-04-27T01:30:32.495Z,63.60
2019-04-27T01:34:50.757Z,63.40
2019-04-27T01:39:13.232Z,63.50
2019-04-27T01:43:31.321Z,63.40
2019-04-27T01:47:50.499Z,63.40
2019-04-27T01:52:09.606Z,63.40
2019-04-27T01:56:29.380Z,63.40
2019-04-27T02:01:14.335Z,63.40
2019-04-27T02:05:51.820Z,63.40
2019-04-27T02:10:13.470Z,63.40
2019-04-27T02:14:32.633Z,63.30
2019-04-27T02:18:50.855Z,63.30
2019-04-27T02:23:10.167Z,63.40
2019-04-27T02:27:31.954Z,63.20
2019-04-27T02:32:10.885Z,63.30
2019-04-27T02:36:30.507Z,63.30
2019-04-27T02:40:59.553Z,63.30
2019-04-27T02:45:19.581Z,63.10
2019-04-27T02:49:37.285Z,62.90
2019-04-27T02:53:56.662Z,62.80
2019-04-27T02:58:15.190Z,62.80
2019-04-27T03:02:41.118Z,62.80
2019-04-27T03:07:00.228Z,62.80
2019-04-27T03:11:23.312Z,62.80
2019-04-27T03:16:02.393Z,63.00
2019-04-27T03:20:31.789Z,62.90
2019-04-27T03:25:31.933Z,63.00
2019-04-27T03:29:49.708Z,62.80
2019-04-27T03:34:15.783Z,62.80
2019-04-27T03:38:30.081Z,62.80
2019-04-27T03:42:50.530Z,63.00
2019-04-27T03:47:12.323Z,63.00
2019-04-27T03:51:34.708Z,63.00
2019-04-27T03:55:55.607Z,63.10
2019-04-27T04:00:19.987Z,63.10
2019-04-27T04:04:40.406Z,63.20
2019-04-27T04:09:00.251Z,63.30
2019-04-27T04:13:25.932Z,63.50
2019-04-27T04:17:44.232Z,63.50
2019-04-27T04:22:02.591Z,63.50
2019-04-27T04:26:21.021Z,63.40
2019-04-27T04:30:40.214Z,63.20
2019-04-27T04:35:21.523Z,63.20
2019-04-27T04:39:40.605Z,63.50
2019-04-27T04:44:09.760Z,63.70
2019-04-27T04:48:30.177Z,64.90
2019-04-27T04:52:49.952Z,67.50
2019-04-27T04:57:09.299Z,70.30
2019-04-27T05:01:29.911Z,72.40
2019-04-27T05:05:50.107Z,73.50
2019-04-27T05:10:09.189Z,72.30
2019-04-27T05:14:28.818Z,73.20
2019-04-27T05:18:47.251Z,72.30
2019-04-27T05:23:05.588Z,68.80
2019-04-27T05:27:23.927Z,67.70
2019-04-27T05:31:42.348Z,66.80
2019-04-27T05:36:01.402Z,64.80
2019-04-27T05:40:19.746Z,65.00
2019-04-27T05:45:34.026Z,68.40
2019-04-27T05:49:58.860Z,70.60
2019-04-27T05:54:19.141Z,71.90
2019-04-27T05:58:39.229Z,69.30
2019-04-27T06:02:59.027Z,70.00
2019-04-27T06:07:19.328Z,68.50
2019-04-27T06:11:37.641Z,66.70
2019-04-27T06:15:55.869Z,67.30
2019-04-27T06:20:14.340Z,68.10
2019-04-27T06:24:32.862Z,70.50
2019-04-27T06:28:51.916Z,72.40
2019-04-27T06:33:10.246Z,74.50
2019-04-27T06:37:29.392Z,72.60
2019-04-27T06:41:49.040Z,70.00
2019-04-27T06:46:08.794Z,71.40
2019-04-27T06:50:27.233Z,70.00
2019-04-27T06:54:45.480Z,68.10
2019-04-27T06:59:04.208Z,66.00
2019-04-27T07:03:22.880Z,63.30
2019-04-27T07:07:41.179Z,63.10
2019-04-27T07:12:00.818Z,63.80
2019-04-27T07:16:19.717Z,63.50
2019-04-27T07:20:38.858Z,64.60
2019-04-27T07:24:58.958Z,62.30
2019-04-27T07:29:19.442Z,62.00
2019-04-27T07:33:39.585Z,63.10
2019-04-27T07:37:59.033Z,60.90
2019-04-27T07:42:17.314Z,59.20
2019-04-27T07:46:35.838Z,58.00
2019-04-27T07:50:54.714Z,57.20
2019-04-27T07:55:13.168Z,56.60
2019-04-27T07:59:31.493Z,56.60
2019-04-27T08:03:50.158Z,54.90
2019-04-27T08:08:09.001Z,54.60
2019-04-27T08:12:28.852Z,54.10
2019-04-27T08:16:48.688Z,53.80
2019-04-27T08:21:08.827Z,55.00
2019-04-27T08:25:28.681Z,55.40
2019-04-27T08:30:06.174Z,56.50
2019-04-27T08:34:34.378Z,56.10
2019-04-27T08:38:53.033Z,54.40
2019-04-27T08:43:11.762Z,55.00
2019-04-27T08:47:30.933Z,54.90
2019-04-27T08:51:57.208Z,52.80
2019-04-27T08:56:09.381Z,52.70
2019-04-27T09:00:29.123Z,52.80
2019-04-27T09:04:47.405Z,52.90
2019-04-27T09:09:11.649Z,52.90
2019-04-27T09:13:51.826Z,53.70
2019-04-27T09:18:12.434Z,53.50
2019-04-27T09:22:31.659Z,53.70
2019-04-27T09:26:49.917Z,54.30
2019-04-27T09:31:09.239Z,53.50
2019-04-27T09:35:28.538Z,54.00
2019-04-27T09:39:49.042Z,54.10
2019-04-27T09:44:08.164Z,54.50
2019-04-27T09:48:26.605Z,54.10
2019-04-27T09:52:45.991Z,54.60
2019-04-27T09:57:04.432Z,54.90
2019-04-27T10:01:23.379Z,54.60
2019-04-27T10:05:42.083Z,54.70
2019-04-27T10:10:03.941Z,55.10
2019-04-27T10:14:22.612Z,57.40
2019-04-27T10:18:41.309Z,57.70
2019-04-27T10:22:59.907Z,57.20
2019-04-27T10:27:18.474Z,55.80
2019-04-27T10:31:37.554Z,55.40
2019-04-27T10:35:56.465Z,56.00
2019-04-27T10:40:16.188Z,56.70
2019-04-27T10:44:35.572Z,56.70
2019-04-27T10:48:55.634Z,57.00
2019-04-27T10:53:14.244Z,55.70
2019-04-27T10:57:33.611Z,55.70
2019-04-27T11:01:52.419Z,54.70
2019-04-27T11:06:30.483Z,55.10
2019-04-27T11:10:48.851Z,55.50
2019-04-27T11:15:09.307Z,55.30
2019-04-27T11:19:27.670Z,55.20
2019-04-27T11:23:46.291Z,55.40
2019-04-27T11:28:05.804Z,55.10
2019-04-27T11:32:24.736Z,54.70
2019-04-27T11:37:03.359Z,54.40
2019-04-27T11:41:22.961Z,54.70
2019-04-27T11:45:41.352Z,55.00
2019-04-27T11:49:59.651Z,54.50
2019-04-27T11:54:17.945Z,54.80
2019-04-27T11:58:36.252Z,55.10
2019-04-27T12:02:56.568Z,55.70
2019-04-27T12:07:15.373Z,55.90
2019-04-27T12:11:33.755Z,55.60
2019-04-27T12:15:52.590Z,56.50
2019-04-27T12:20:11.171Z,56.20
2019-04-27T12:24:29.540Z,54.70
2019-04-27T12:28:51.391Z,55.20
2019-04-27T12:33:10.112Z,53.70
2019-04-27T12:37:28.483Z,53.80
2019-04-27T12:41:48.585Z,53.30
2019-04-27T12:46:07.472Z,53.00
2019-04-27T12:50:26.525Z,54.10
2019-04-27T12:54:58.503Z,55.40
2019-04-27T12:59:36.551Z,53.90
2019-04-27T13:03:58.953Z,54.70
2019-04-27T13:08:15.574Z,54.50
2019-04-27T13:12:35.782Z,53.90
2019-04-27T13:16:56.029Z,53.60
2019-04-27T13:21:15.700Z,52.80
2019-04-27T13:25:34.204Z,53.40
2019-04-27T13:29:52.726Z,54.10
2019-04-27T13:34:11.300Z,54.70
2019-04-27T13:38:29.931Z,53.40
2019-04-27T13:43:07.579Z,52.40
2019-04-27T13:47:34.318Z,51.90
2019-04-27T13:52:03.343Z,51.50
2019-04-27T13:56:26.225Z,50.70
2019-04-27T14:00:44.705Z,50.50
2019-04-27T14:05:03.064Z,50.60
2019-04-27T14:09:21.537Z,50.70
2019-04-27T14:13:39.921Z,51.20
2019-04-27T14:17:59.266Z,51.80
2019-04-27T14:22:18.287Z,51.80
2019-04-27T14:26:38.520Z,50.30
2019-04-27T14:30:59.677Z,50.60
2019-04-27T14:35:18.224Z,50.60
2019-04-27T14:39:36.599Z,51.00
2019-04-27T14:44:06.083Z,50.90
2019-04-27T14:48:14.725Z,50.30
2019-04-27T14:52:32.905Z,50.50
2019-04-27T14:56:51.569Z,50.80
2019-04-27T15:01:10.252Z,51.00
2019-04-27T15:05:28.553Z,51.30
2019-04-27T15:09:49.683Z,51.90
2019-04-27T15:14:09.125Z,52.70
2019-04-27T15:18:34.641Z,53.40
2019-04-27T15:22:56.703Z,54.80
2019-04-27T15:27:13.379Z,54.50
2019-04-27T15:31:40.895Z,54.40
2019-04-27T15:36:07.681Z,54.10
2019-04-27T15:40:44.016Z,54.10
2019-04-27T15:45:04.269Z,54.50
2019-04-27T15:49:23.573Z,54.60
2019-04-27T15:53:45.888Z,54.70
2019-04-27T15:58:02.260Z,54.80
2019-04-27T16:02:20.639Z,54.20
2019-04-27T16:06:42.844Z,53.80
2019-04-27T16:10:59.756Z,53.30
2019-04-27T16:15:18.518Z,53.30
2019-04-27T16:19:42.643Z,52.70
2019-04-27T16:23:58.527Z,52.40
2019-04-27T16:28:18.391Z,52.90
2019-04-27T16:32:40.407Z,52.90
2019-04-27T16:36:59.350Z,52.90
2019-04-27T16:41:18.506Z,52.80
2019-04-27T16:45:38.890Z,52.60
2019-04-27T16:49:58.612Z,51.60
2019-04-27T16:54:21.180Z,51.40
2019-04-27T16:58:39.652Z,51.50
2019-04-27T17:03:01.367Z,51.50
2019-04-27T17:07:18.919Z,50.20
2019-04-27T17:11:38.800Z,50.60
2019-04-27T17:16:31.249Z,50.20
2019-04-27T17:20:48.283Z,50.30
2019-04-27T17:25:08.838Z,50.50
2019-04-27T17:29:28.256Z,50.10
2019-04-27T17:33:51.943Z,50.10
2019-04-27T17:38:12.835Z,50.10
2019-04-27T17:42:31.188Z,49.00
2019-04-27T17:46:51.276Z,49.60
2019-04-27T17:51:10.804Z,50.10
2019-04-27T17:55:29.221Z,49.70
2019-04-27T17:59:51.313Z,49.60
2019-04-27T18:04:10.472Z,49.20
2019-04-27T18:08:29.122Z,49.00
2019-04-27T18:12:48.716Z,49.30
2019-04-27T18:17:10.343Z,49.40
2019-04-27T18:21:31.216Z,49.80
2019-04-27T18:25:55.701Z,50.10
2019-04-27T18:30:38.671Z,50.50
2019-04-27T18:34:58.469Z,50.90
2019-04-27T18:39:18.223Z,51.40
2019-04-27T18:43:38.544Z,51.80
2019-04-27T18:48:06.679Z,51.70
2019-04-27T18:52:49.648Z,51.90
2019-04-27T18:57:10.714Z,52.10
2019-04-27T19:01:28.931Z,52.30
2019-04-27T19:05:48.106Z,52.50
2019-04-27T19:10:08.768Z,52.60
2019-04-27T19:14:28.284Z,52.80
2019-04-27T19:18:48.070Z,52.90
2019-04-27T19:23:08.287Z,53.70
2019-04-27T19:27:48.558Z,54.70
2019-04-27T19:32:11.457Z,55.50
2019-04-27T19:36:30.573Z,55.70
2019-04-27T19:40:48.833Z,55.80
2019-04-27T19:45:07.896Z,55.50
2019-04-27T19:49:26.898Z,55.20
2019-04-27T19:53:45.631Z,55.10
2019-04-27T19:58:04.007Z,55.40
2019-04-27T20:02:22.624Z,55.40
2019-04-27T20:06:40.931Z,55.50
2019-04-27T20:10:59.439Z,55.20
2019-04-27T20:15:17.749Z,55.00
2019-04-27T20:19:36.123Z,55.00
2019-04-27T20:23:54.968Z,54.90
2019-04-27T20:28:13.305Z,55.00
2019-04-27T20:32:32.122Z,55.10
2019-04-27T20:36:51.074Z,55.00
2019-04-27T20:41:11.589Z,54.90
2019-04-27T20:45:30.880Z,54.90
2019-04-27T20:49:51.047Z,55.40
2019-04-27T20:54:09.379Z,55.20
2019-04-27T20:58:27.627Z,55.50
2019-04-27T21:03:11.764Z,55.50
2019-04-27T21:07:42.724Z,55.40
2019-04-27T21:12:01.537Z,55.50
2019-04-27T21:16:21.113Z,55.70
2019-04-27T21:20:41.154Z,55.70
2019-04-27T21:25:01.506Z,55.80
2019-04-27T21:29:21.023Z,56.00
2019-04-27T21:33:40.899Z,55.60
2019-04-27T21:38:01.154Z,55.60
2019-04-27T21:42:21.237Z,55.60
2019-04-27T21:46:42.217Z,55.50
2019-04-27T21:51:01.520Z,55.50
2019-04-27T21:55:21.969Z,55.30
2019-04-27T21:59:41.842Z,55.20
2019-04-27T22:04:01.046Z,55.10
2019-04-27T22:08:21.436Z,55.20
2019-04-27T22:12:41.591Z,55.20
2019-04-27T22:17:00.883Z,55.20
2019-04-27T22:21:21.450Z,55.90
2019-04-27T22:25:39.634Z,56.20
2019-04-27T22:29:58.245Z,56.20
2019-04-27T22:34:16.616Z,56.40
2019-04-27T22:38:35.143Z,56.40
2019-04-27T22:43:04.012Z,55.50
2019-04-27T22:47:22.304Z,55.50
2019-04-27T22:51:41.184Z,55.30
2019-04-27T22:56:13.542Z,55.20
2019-04-27T23:00:56.825Z,55.20
2019-04-27T23:05:15.412Z,55.10
2019-04-27T23:09:33.832Z,55.00
2019-04-27T23:13:52.527Z,55.70
2019-04-27T23:18:11.685Z,55.60
2019-04-27T23:22:31.497Z,55.50
2019-04-27T23:26:49.874Z,55.50
2019-04-27T23:31:15.343Z,55.70
2019-04-27T23:35:33.722Z,55.60
2019-04-27T23:39:52.895Z,55.60
2019-04-27T23:44:11.187Z,55.50
2019-04-27T23:48:31.972Z,55.50
2019-04-27T23:53:17.973Z,55.70
2019-04-27T23:57:36.537Z,55.80
